Studley, Kansas
Current Conditions -  °F | °C
As of 8:53 AM on Saturday 25 Oct 2014 (Local Time) from KHLC Reporting Station
Clear Clear  
Wind Chill: 48°   Ceiling: Unl
Heat Index: 48°   Visibility: 10mi
Dew Point: 42°   Wind: 3mph
Humidity: 80%   Direction: 260°W
Pressure: 30.09"   Gusts: NA
Location:  39.2633°N, 100.442°W
Report Text: KHLC 251353Z AUTO 26003KT 10SM CLR 09/06 A3009 RMK AO2 SLP186 T00890056
Loading
Personal Weather Stations






























Interactive Weather Map
Tropical Storm Tracking
New forecast layout! Learn more

10-Day Weather Forecast

Advertisements
Track Severe Weather on mobile